| time (UTC) | temp F | wind direction | speed MPH | gust MPH | rain 1hr in | rain 24hr in | rain mn in | humidity % | barometer mb |
| 20260906000500 | 78 | 98 | 0.0 | 0.0 | 0.00 | 0.64 | 0.64 | 99 | 1012.1 |
| 20260905235959 | 78 | 105 | 0.0 | 0.0 | 0.00 | 0.64 | 0.64 | 99 | 1012.2 |
| 20260905235454 | 78 | 105 | 0.0 | 0.0 | 0.00 | 0.64 | 0.64 | 99 | 1012.2 |
| 20260905234949 | 78 | 105 | 0.0 | 0.0 | 0.00 | 0.64 | 0.64 | 99 | 1012.3 |
| 20260905234444 | 78 | 107 | 0.0 | 0.0 | 0.00 | 0.64 | 0.64 | 99 | 1012.1 |
| 20260905233939 | 78 | 107 | 0.0 | 0.0 | 0.00 | 0.64 | 0.64 | 99 | 1012.2 |
| 20260905233434 | 78 | 116 | 0.0 | 0.0 | 0.00 | 0.64 | 0.64 | 99 | 1012.0 |
| 20260905232933 | 78 | 117 | 0.0 | 0.0 | 0.00 | 0.64 | 0.64 | 99 | 1011.9 |
| 20260905232429 | 78 | 117 | 0.0 | 0.0 | 0.00 | 0.64 | 0.64 | 99 | 1012.2 |
| 20260905231925 | 78 | 119 | 0.0 | 0.0 | 0.00 | 0.64 | 0.64 | 99 | 1012.0 |
| 20260905231421 | 78 | 119 | 0.0 | 0.0 | 0.00 | 0.64 | 0.64 | 99 | 1012.0 |
| 20260905230917 | 78 | 119 | 0.0 | 0.0 | 0.00 | 0.64 | 0.64 | 99 | 1012.1 |
| 20260905230414 | 78 | 105 | 0.0 | 0.0 | 0.00 | 0.64 | 0.64 | 99 | 1011.9 |
| 20260905225908 | 78 | 122 | 0.0 | 0.0 | 0.00 | 0.64 | 0.64 | 99 | 1011.8 |
| 20260905225403 | 78 | 108 | 0.0 | 0.0 | 0.00 | 0.64 | 0.64 | 99 | 1011.9 |
| 20260905224858 | 78 | 124 | 0.0 | 0.0 | 0.00 | 0.64 | 0.64 | 99 | 1011.8 |
| 20260905224353 | 78 | 101 | 0.0 | 0.0 | 0.00 | 0.64 | 0.64 | 99 | 1011.6 |
| 20260905223848 | 78 | 101 | 0.0 | 0.0 | 0.00 | 0.64 | 0.64 | 99 | 1011.6 |
| 20260905223346 | 78 | 97 | 0.0 | 0.0 | 0.00 | 0.64 | 0.64 | 99 | 1011.8 |
| 20260905222840 | 78 | 101 | 0.0 | 0.0 | 0.00 | 0.64 | 0.64 | 99 | 1011.7 |
| 20260905222339 | 77 | 101 | 0.0 | 0.0 | 0.00 | 0.64 | 0.64 | 99 | 1011.6 |
| 20260905221835 | 77 | 98 | 0.0 | 0.0 | 0.00 | 0.64 | 0.64 | 99 | 1011.8 |
| 20260905221332 | 77 | 97 | 0.0 | 0.0 | 0.00 | 0.64 | 0.64 | 99 | 1012.0 |
| 20260905220827 | 77 | 100 | 0.0 | 0.0 | 0.00 | 0.64 | 0.64 | 99 | 1012.1 |
| 20260905220323 | 77 | 92 | 1.0 | 1.0 | 0.00 | 0.64 | 0.64 | 99 | 1012.1 |
| 20260905215822 | 77 | 100 | 0.0 | 0.0 | 0.00 | 0.64 | 0.64 | 99 | 1012.1 |
| 20260905215318 | 77 | 102 | 0.0 | 0.0 | 0.00 | 0.64 | 0.64 | 99 | 1012.1 |
| 20260905214815 | 77 | 101 | 0.0 | 0.0 | 0.00 | 0.64 | 0.64 | 99 | 1012.1 |
| 20260905214310 | 77 | 106 | 0.0 | 0.0 | 0.00 | 0.64 | 0.64 | 99 | 1012.1 |
| 20260905213805 | 76 | 105 | 0.0 | 0.0 | 0.00 | 0.64 | 0.64 | 99 | 1011.8 |
| 20260905213301 | 77 | 105 | 0.0 | 0.0 | 0.00 | 0.64 | 0.64 | 99 | 1011.8 |
| 20260905212755 | 76 | 99 | 0.0 | 0.0 | 0.00 | 0.64 | 0.64 | 99 | 1011.8 |
| 20260905212254 | 76 | 114 | 0.0 | 0.0 | 0.05 | 0.64 | 0.64 | 99 | 1011.9 |
| 20260905211749 | 76 | 120 | 0.0 | 0.0 | 0.05 | 0.64 | 0.64 | 99 | 1011.5 |
| 20260905211244 | 76 | 118 | 0.0 | 0.0 | 0.00 | 0.63 | 0.63 | 99 | 1011.8 |
| 20260905210742 | 76 | 118 | 0.0 | 0.0 | 0.07 | 0.63 | 0.63 | 99 | 1011.8 |
| 20260905210240 | 76 | 113 | 0.0 | 0.0 | 0.07 | 0.63 | 0.63 | 99 | 1012.1 |
| 20260905205739 | 76 | 111 | 0.0 | 0.0 | 0.05 | 0.62 | 0.62 | 99 | 1012.1 |
| 20260905205235 | 75 | 119 | 0.0 | 0.0 | 0.05 | 0.62 | 0.62 | 99 | 1012.5 |
| 20260905204734 | 76 | 119 | 0.0 | 0.0 | 0.07 | 0.61 | 0.61 | 99 | 1012.4 |
| 20260905204230 | 76 | 119 | 0.0 | 0.0 | 0.19 | 0.61 | 0.61 | 99 | 1012.6 |
| 20260905203729 | 76 | 109 | 0.0 | 0.0 | 0.24 | 0.60 | 0.60 | 99 | 1013.0 |
| 20260905203225 | 76 | 109 | 0.0 | 0.0 | 0.24 | 0.58 | 0.58 | 99 | 1013.3 |
| 20260905202720 | 75 | 109 | 0.0 | 0.0 | 0.24 | 0.56 | 0.56 | 99 | 1013.3 |
| 20260905202215 | 75 | 105 | 0.0 | 0.0 | 0.31 | 0.54 | 0.54 | 99 | 1013.5 |
| 20260905201710 | 76 | 88 | 0.0 | 0.0 | 0.35 | 0.51 | 0.51 | 99 | 1013.4 |
| 20260905201205 | 75 | 102 | 0.0 | 0.0 | 0.42 | 0.48 | 0.48 | 99 | 1013.2 |
| 20260905200700 | 76 | 75 | 0.0 | 0.0 | 0.54 | 0.45 | 0.45 | 99 | 1013.1 |
| 20260905200155 | 76 | 111 | 0.0 | 0.0 | 0.59 | 0.41 | 0.41 | 99 | 1013.1 |
| 20260905195654 | 77 | 131 | 0.0 | 0.0 | 0.66 | 0.36 | 0.36 | 99 | 1013.3 |
| 20260905195149 | 77 | 107 | 0.0 | 0.0 | 0.78 | 0.31 | 0.31 | 99 | 1013.3 |
| 20260905194644 | 78 | 124 | 1.0 | 1.0 | 0.90 | 0.25 | 0.25 | 98 | 1013.4 |
| 20260905194138 | 79 | 172 | 2.0 | 2.0 | 1.09 | 0.18 | 0.18 | 96 | 1013.3 |
| 20260905193633 | 80 | 116 | 0.0 | 1.0 | 0.59 | 0.10 | 0.10 | 93 | 1013.3 |
| 20260905193133 | 86 | 89 | 0.0 | 0.0 | 0.05 | 0.01 | 0.01 | 82 | 1013.0 |
| 20260905192629 | 89 | 51 | 2.0 | 2.0 | 0.00 | 0.00 | 0.00 | 72 | 1012.5 |
| 20260905192125 | 87 | 98 | 0.0 | 0.0 | 0.00 | 0.00 | 0.00 | 72 | 1012.1 |
| 20260905191624 | 86 | 154 | 2.0 | 2.0 | 0.00 | 0.00 | 0.00 | 74 | 1012.1 |
| 20260905191123 | 86 | 111 | 0.0 | 0.0 | 0.00 | 0.00 | 0.00 | 76 | 1012.2 |
| 20260905190621 | 87 | 105 | 1.0 | 1.0 | 0.00 | 0.00 | 0.00 | 75 | 1012.2 |
| 20260905190121 | 87 | 130 | 1.0 | 1.0 | 0.00 | 0.00 | 0.00 | 73 | 1012.3 |
| 20260905185620 | 88 | 104 | 0.0 | 0.0 | 0.00 | 0.00 | 0.00 | 73 | 1012.2 |
| 20260905185114 | 89 | 111 | 0.0 | 0.0 | 0.00 | 0.00 | 0.00 | 71 | 1012.4 |
| 20260905184609 | 90 | 103 | 0.0 | 0.0 | 0.00 | 0.00 | 0.00 | 66 | 1012.2 |
| 20260905184108 | 90 | 108 | 0.0 | 0.0 | 0.00 | 0.00 | 0.00 | 66 | 1012.2 |
| 20260905183607 | 91 | 87 | 0.0 | 0.0 | 0.00 | 0.00 | 0.00 | 62 | 1012.5 |
| 20260905183103 | 92 | 30 | 2.0 | 2.0 | 0.00 | 0.00 | 0.00 | 60 | 1012.4 |
| 20260905182602 | 93 | 115 | 0.0 | 0.0 | 0.00 | 0.00 | 0.00 | 58 | 1012.6 |
| 20260905182056 | 93 | 36 | 1.0 | 2.0 | 0.00 | 0.00 | 0.00 | 59 | 1012.5 |
| 20260905181551 | 93 | 117 | 0.0 | 0.0 | 0.00 | 0.00 | 0.00 | 58 | 1012.5 |
| 20260905181050 | 92 | 111 | 0.0 | 0.0 | 0.00 | 0.00 | 0.00 | 62 | 1012.8 |
| 20260905180545 | 91 | 138 | 0.0 | 1.0 | 0.00 | 0.00 | 0.00 | 63 | 1012.8 |
| 20260905180041 | 89 | 115 | 0.0 | 0.0 | 0.00 | 0.00 | 0.00 | 69 | 1012.9 |
| 20260905175539 | 89 | 85 | 0.0 | 1.0 | 0.00 | 0.00 | 0.00 | 67 | 1013.3 |
| 20260905175035 | 89 | 92 | 0.0 | 1.0 | 0.00 | 0.00 | 0.00 | 68 | 1013.4 |
| 20260905174531 | 90 | 110 | 0.0 | 0.0 | 0.00 | 0.00 | 0.00 | 69 | 1013.3 |
| 20260905174026 | 90 | 102 | 0.0 | 0.0 | 0.00 | 0.00 | 0.00 | 69 | 1013.2 |
| 20260905173523 | 91 | 122 | 0.0 | 0.0 | 0.00 | 0.00 | 0.00 | 62 | 1013.4 |
| 20260905173018 | 92 | 121 | 0.0 | 0.0 | 0.00 | 0.00 | 0.00 | 61 | 1013.4 |
| 20260905172516 | 93 | 117 | 0.0 | 0.0 | 0.00 | 0.00 | 0.00 | 59 | 1013.5 |
| 20260905172012 | 93 | 120 | 0.0 | 0.0 | 0.00 | 0.00 | 0.00 | 59 | 1013.6 |
| 20260905171508 | 92 | 134 | 0.0 | 1.0 | 0.00 | 0.00 | 0.00 | 61 | 1013.7 |
| 20260905171004 | 92 | 116 | 0.0 | 1.0 | 0.00 | 0.00 | 0.00 | 63 | 1013.9 |
| 20260905170500 | 91 | 145 | 1.0 | 1.0 | 0.00 | 0.00 | 0.00 | 64 | 1014.0 |
| 20260905165954 | 91 | 159 | 1.0 | 1.0 | 0.00 | 0.00 | 0.00 | 64 | 1014.0 |
| 20260905165449 | 89 | 103 | 0.0 | 0.0 | 0.00 | 0.00 | 0.00 | 65 | 1013.9 |
| 20260905164944 | 88 | 116 | 1.0 | 1.0 | 0.00 | 0.00 | 0.00 | 70 | 1014.2 |
| 20260905164438 | 88 | 104 | 0.0 | 0.0 | 0.00 | 0.00 | 0.00 | 72 | 1014.1 |
| 20260905163933 | 89 | 110 | 0.0 | 0.0 | 0.00 | 0.00 | 0.00 | 70 | 1014.0 |
| 20260905163430 | 89 | 78 | 1.0 | 1.0 | 0.00 | 0.00 | 0.00 | 68 | 1014.3 |
| 20260905162926 | 89 | 106 | 0.0 | 0.0 | 0.00 | 0.00 | 0.00 | 68 | 1014.2 |
| 20260905162420 | 89 | 88 | 0.0 | 0.0 | 0.00 | 0.00 | 0.00 | 70 | 1014.1 |
| 20260905161916 | 89 | 114 | 0.0 | 0.0 | 0.00 | 0.00 | 0.00 | 68 | 1014.2 |
| 20260905161414 | 89 | 138 | 0.0 | 1.0 | 0.00 | 0.00 | 0.00 | 68 | 1014.1 |
| 20260905160913 | 89 | 353 | 2.0 | 2.0 | 0.00 | 0.00 | 0.00 | 68 | 1014.3 |
| 20260905160406 | 89 | 122 | 0.0 | 0.0 | 0.00 | 0.00 | 0.00 | 70 | 1014.2 |
| 20260905155900 | 88 | 133 | 0.0 | 1.0 | 0.00 | 0.00 | 0.00 | 70 | 1014.3 |
| 20260905155355 | 89 | 129 | 0.0 | 0.0 | 0.00 | 0.00 | 0.00 | 70 | 1014.4 |
| 20260905154854 | 88 | 75 | 0.0 | 1.0 | 0.00 | 0.00 | 0.00 | 71 | 1014.4 |
| 20260905154350 | 87 | 107 | 0.0 | 0.0 | 0.00 | 0.00 | 0.00 | 75 | 1014.5 |
| 20260905153845 | 87 | 82 | 1.0 | 1.0 | 0.00 | 0.00 | 0.00 | 77 | 1014.5 |
| 20260905153342 | 86 | 108 | 0.0 | 0.0 | 0.00 | 0.00 | 0.00 | 78 | 1014.5 |
| 20260905152841 | 87 | 101 | 0.0 | 0.0 | 0.00 | 0.00 | 0.00 | 77 | 1014.4 |
| 20260905152340 | 87 | 131 | 0.0 | 1.0 | 0.00 | 0.00 | 0.00 | 78 | 1014.5 |
| 20260905151835 | 86 | 107 | 0.0 | 0.0 | 0.00 | 0.00 | 0.00 | 79 | 1014.2 |
| 20260905151331 | 86 | 100 | 0.0 | 0.0 | 0.00 | 0.00 | 0.00 | 80 | 1014.1 |
| 20260905150825 | 86 | 85 | 0.0 | 0.0 | 0.00 | 0.00 | 0.00 | 78 | 1014.2 |
| 20260905150319 | 86 | 83 | 0.0 | 0.0 | 0.00 | 0.00 | 0.00 | 80 | 1014.3 |
| 20260905145816 | 85 | 120 | 0.0 | 0.0 | 0.00 | 0.00 | 0.00 | 80 | 1014.3 |
| 20260905145311 | 85 | 120 | 0.0 | 0.0 | 0.00 | 0.00 | 0.00 | 80 | 1014.2 |
| 20260905144810 | 85 | 123 | 0.0 | 0.0 | 0.00 | 0.00 | 0.00 | 81 | 1014.1 |
| 20260905144306 | 84 | 112 | 0.0 | 0.0 | 0.00 | 0.00 | 0.00 | 82 | 1014.3 |
| 20260905143804 | 84 | 108 | 0.0 | 0.0 | 0.00 | 0.00 | 0.00 | 83 | 1014.1 |
| 20260905143259 | 84 | 91 | 0.0 | 0.0 | 0.00 | 0.00 | 0.00 | 84 | 1014.0 |
| 20260905142757 | 83 | 117 | 0.0 | 0.0 | 0.00 | 0.00 | 0.00 | 86 | 1014.2 |
| 20260905142252 | 82 | 109 | 0.0 | 0.0 | 0.00 | 0.00 | 0.00 | 87 | 1014.2 |
| 20260905141748 | 82 | 115 | 0.0 | 0.0 | 0.00 | 0.00 | 0.00 | 88 | 1014.2 |
| 20260905141244 | 82 | 105 | 0.0 | 0.0 | 0.00 | 0.00 | 0.00 | 88 | 1014.2 |
| 20260905140739 | 81 | 98 | 0.0 | 0.0 | 0.00 | 0.00 | 0.00 | 89 | 1014.2 |
| 20260905140233 | 80 | 109 | 0.0 | 0.0 | 0.00 | 0.00 | 0.00 | 89 | 1014.2 |
| 20260905135732 | 80 | 117 | 0.0 | 0.0 | 0.00 | 0.00 | 0.00 | 91 | 1014.3 |
| 20260905135229 | 79 | 110 | 0.0 | 0.0 | 0.00 | 0.00 | 0.00 | 93 | 1014.3 |
| 20260905134728 | 79 | 110 | 0.0 | 0.0 | 0.00 | 0.00 | 0.00 | 94 | 1014.1 |
| 20260905134227 | 78 | 104 | 0.0 | 0.0 | 0.00 | 0.00 | 0.00 | 94 | 1014.1 |
| 20260905133722 | 78 | 103 | 0.0 | 0.0 | 0.00 | 0.00 | 0.00 | 95 | 1014.0 |
| 20260905133217 | 78 | 108 | 0.0 | 0.0 | 0.00 | 0.00 | 0.00 | 95 | 1014.1 |
| 20260905132716 | 78 | 112 | 0.0 | 0.0 | 0.00 | 0.00 | 0.00 | 96 | 1013.8 |
| 20260905132212 | 77 | 112 | 0.0 | 0.0 | 0.00 | 0.00 | 0.00 | 97 | 1014.1 |
| 20260905131707 | 77 | 112 | 0.0 | 0.0 | 0.00 | 0.00 | 0.00 | 97 | 1013.9 |
| 20260905131202 | 77 | 112 | 0.0 | 0.0 | 0.00 | 0.00 | 0.00 | 98 | 1014.3 |
| 20260905130656 | 76 | 112 | 0.0 | 0.0 | 0.00 | 0.00 | 0.00 | 99 | 1014.0 |
| 20260905130156 | 76 | 112 | 0.0 | 0.0 | 0.00 | 0.00 | 0.00 | 99 | 1014.2 |
| 20260905125650 | 76 | 112 | 0.0 | 0.0 | 0.00 | 0.00 | 0.00 | 99 | 1013.9 |
| 20260905125146 | 75 | 112 | 0.0 | 0.0 | 0.00 | 0.00 | 0.00 | 99 | 1014.0 |
| 20260905124642 | 75 | 112 | 0.0 | 0.0 | 0.00 | 0.00 | 0.00 | 99 | 1014.0 |
| 20260905124138 | 75 | 112 | 0.0 | 0.0 | 0.00 | 0.00 | 0.00 | 99 | 1013.9 |
| 20260905123633 | 75 | 112 | 0.0 | 0.0 | 0.00 | 0.00 | 0.00 | 99 | 1013.8 |
| 20260905123130 | 75 | 112 | 0.0 | 0.0 | 0.00 | 0.00 | 0.00 | 99 | 1013.8 |
| 20260905122630 | 75 | 108 | 0.0 | 0.0 | 0.00 | 0.00 | 0.00 | 99 | 1013.8 |
| 20260905122125 | 75 | 108 | 0.0 | 0.0 | 0.00 | 0.00 | 0.00 | 99 | 1013.5 |
| 20260905121619 | 75 | 108 | 0.0 | 0.0 | 0.00 | 0.00 | 0.00 | 99 | 1013.8 |
| 20260905121115 | 75 | 108 | 0.0 | 0.0 | 0.00 | 0.00 | 0.00 | 99 | 1013.6 |
| 20260905120614 | 75 | 108 | 0.0 | 0.0 | 0.00 | 0.00 | 0.00 | 99 | 1013.8 |
| 20260905120109 | 75 | 108 | 0.0 | 0.0 | 0.00 | 0.00 | 0.00 | 99 | 1013.6 |
| 20260905115608 | 75 | 109 | 0.0 | 0.0 | 0.00 | 0.00 | 0.00 | 99 | 1013.7 |
| 20260905115103 | 75 | 109 | 0.0 | 0.0 | 0.00 | 0.00 | 0.00 | 99 | 1013.4 |
| 20260905114602 | 74 | 109 | 0.0 | 0.0 | 0.00 | 0.00 | 0.00 | 99 | 1013.4 |
| 20260905114101 | 75 | 109 | 0.0 | 0.0 | 0.00 | 0.00 | 0.00 | 99 | 1013.5 |
| 20260905113556 | 75 | 109 | 0.0 | 0.0 | 0.00 | 0.00 | 0.00 | 99 | 1013.4 |
| 20260905113052 | 75 | 112 | 0.0 | 0.0 | 0.00 | 0.00 | 0.00 | 99 | 1013.2 |
| 20260905112547 | 75 | 114 | 0.0 | 0.0 | 0.00 | 0.00 | 0.00 | 99 | 1013.3 |
| 20260905112042 | 75 | 110 | 0.0 | 0.0 | 0.00 | 0.00 | 0.00 | 99 | 1013.0 |
| 20260905111537 | 75 | 110 | 0.0 | 0.0 | 0.00 | 0.00 | 0.00 | 99 | 1013.2 |
| 20260905111036 | 75 | 110 | 0.0 | 0.0 | 0.00 | 0.00 | 0.00 | 99 | 1013.2 |
| 20260905110535 | 75 | 110 | 0.0 | 0.0 | 0.00 | 0.00 | 0.00 | 99 | 1013.1 |
| 20260905110031 | 75 | 110 | 0.0 | 0.0 | 0.00 | 0.00 | 0.00 | 99 | 1013.1 |
| 20260905105531 | 75 | 110 | 0.0 | 0.0 | 0.00 | 0.00 | 0.00 | 99 | 1013.3 |
| 20260905105030 | 75 | 108 | 0.0 | 0.0 | 0.00 | 0.00 | 0.00 | 99 | 1013.0 |
| 20260905104526 | 75 | 108 | 0.0 | 0.0 | 0.00 | 0.00 | 0.00 | 99 | 1013.1 |
| 20260905104026 | 75 | 108 | 0.0 | 0.0 | 0.00 | 0.00 | 0.00 | 99 | 1013.3 |
| 20260905103521 | 74 | 108 | 0.0 | 0.0 | 0.00 | 0.00 | 0.00 | 99 | 1013.4 |
| 20260905103017 | 74 | 108 | 0.0 | 0.0 | 0.00 | 0.00 | 0.00 | 98 | 1013.3 |
| 20260905102513 | 74 | 106 | 0.0 | 0.0 | 0.00 | 0.00 | 0.00 | 98 | 1013.1 |
| 20260905102009 | 74 | 106 | 0.0 | 0.0 | 0.00 | 0.00 | 0.00 | 98 | 1013.1 |
| 20260905101507 | 75 | 106 | 0.0 | 0.0 | 0.00 | 0.00 | 0.00 | 98 | 1013.2 |
| 20260905101006 | 75 | 106 | 0.0 | 0.0 | 0.00 | 0.00 | 0.00 | 98 | 1013.1 |
| 20260905100502 | 75 | 106 | 0.0 | 0.0 | 0.00 | 0.00 | 0.00 | 98 | 1013.4 |
| 20260905100001 | 75 | 104 | 0.0 | 0.0 | 0.00 | 0.00 | 0.00 | 98 | 1013.1 |
| 20260905095456 | 75 | 104 | 0.0 | 0.0 | 0.00 | 0.00 | 0.00 | 98 | 1013.3 |
| 20260905094952 | 75 | 104 | 0.0 | 0.0 | 0.00 | 0.00 | 0.00 | 98 | 1013.2 |
| 20260905094447 | 75 | 106 | 0.0 | 0.0 | 0.00 | 0.00 | 0.00 | 98 | 1013.1 |
| 20260905093945 | 75 | 111 | 0.0 | 0.0 | 0.00 | 0.00 | 0.00 | 98 | 1013.1 |
| 20260905093441 | 75 | 111 | 0.0 | 0.0 | 0.00 | 0.00 | 0.00 | 98 | 1013.1 |
| 20260905092936 | 75 | 111 | 0.0 | 0.0 | 0.00 | 0.00 | 0.00 | 98 | 1013.1 |
| 20260905092432 | 75 | 112 | 0.0 | 0.0 | 0.00 | 0.00 | 0.00 | 98 | 1012.8 |
| 20260905091926 | 75 | 112 | 0.0 | 0.0 | 0.00 | 0.00 | 0.00 | 97 | 1013.0 |
| 20260905091421 | 75 | 112 | 0.0 | 0.0 | 0.00 | 0.00 | 0.00 | 97 | 1012.8 |
| 20260905090920 | 75 | 112 | 0.0 | 0.0 | 0.00 | 0.00 | 0.00 | 97 | 1012.8 |
| 20260905090416 | 75 | 119 | 0.0 | 0.0 | 0.00 | 0.00 | 0.00 | 97 | 1012.6 |
| 20260905085915 | 75 | 122 | 0.0 | 0.0 | 0.00 | 0.00 | 0.00 | 97 | 1012.6 |
| 20260905085414 | 75 | 115 | 0.0 | 0.0 | 0.00 | 0.00 | 0.00 | 97 | 1012.6 |
| 20260905084911 | 75 | 113 | 0.0 | 0.0 | 0.00 | 0.00 | 0.00 | 97 | 1012.6 |
| 20260905084409 | 75 | 108 | 0.0 | 0.0 | 0.00 | 0.00 | 0.00 | 97 | 1012.6 |
| 20260905083905 | 76 | 108 | 0.0 | 0.0 | 0.00 | 0.00 | 0.00 | 96 | 1012.6 |
| 20260905083401 | 76 | 108 | 0.0 | 0.0 | 0.00 | 0.00 | 0.00 | 96 | 1012.5 |
| 20260905082856 | 76 | 108 | 0.0 | 0.0 | 0.00 | 0.00 | 0.00 | 96 | 1012.4 |
| 20260905082352 | 76 | 108 | 0.0 | 0.0 | 0.00 | 0.00 | 0.00 | 96 | 1012.8 |
| 20260905081847 | 76 | 108 | 0.0 | 0.0 | 0.00 | 0.00 | 0.00 | 96 | 1012.8 |
| 20260905081342 | 76 | 108 | 0.0 | 0.0 | 0.00 | 0.00 | 0.00 | 96 | 1012.6 |
| 20260905080841 | 76 | 108 | 0.0 | 0.0 | 0.00 | 0.00 | 0.00 | 96 | 1012.8 |
| 20260905080341 | 76 | 108 | 0.0 | 0.0 | 0.00 | 0.00 | 0.00 | 96 | 1012.8 |
| 20260905075839 | 76 | 106 | 0.0 | 0.0 | 0.00 | 0.00 | 0.00 | 96 | 1013.0 |
| 20260905075334 | 76 | 104 | 0.0 | 0.0 | 0.00 | 0.00 | 0.00 | 96 | 1012.9 |
| 20260905074833 | 76 | 104 | 0.0 | 0.0 | 0.00 | 0.00 | 0.00 | 95 | 1012.8 |
| 20260905074329 | 76 | 104 | 0.0 | 0.0 | 0.00 | 0.00 | 0.00 | 95 | 1012.6 |
| 20260905073825 | 76 | 102 | 0.0 | 0.0 | 0.00 | 0.00 | 0.00 | 95 | 1013.2 |
| 20260905073319 | 76 | 101 | 0.0 | 0.0 | 0.00 | 0.00 | 0.00 | 95 | 1013.1 |
| 20260905072814 | 76 | 99 | 0.0 | 0.0 | 0.00 | 0.00 | 0.00 | 95 | 1013.1 |
| 20260905072309 | 77 | 113 | 0.0 | 0.0 | 0.00 | 0.00 | 0.00 | 94 | 1013.0 |
| 20260905071806 | 77 | 113 | 0.0 | 0.0 | 0.00 | 0.00 | 0.00 | 94 | 1013.0 |
| 20260905071302 | 77 | 113 | 0.0 | 0.0 | 0.00 | 0.00 | 0.00 | 94 | 1013.1 |
| 20260905070756 | 77 | 114 | 0.0 | 0.0 | 0.00 | 0.00 | 0.00 | 94 | 1013.3 |
| 20260905070252 | 77 | 114 | 0.0 | 0.0 | 0.00 | 0.00 | 0.00 | 94 | 1013.1 |
| 20260905065751 | 77 | 114 | 0.0 | 0.0 | 0.00 | 0.00 | 0.00 | 94 | 1013.2 |
| 20260905065245 | 77 | 114 | 0.0 | 0.0 | 0.00 | 0.00 | 0.00 | 93 | 1013.3 |
| 20260905064740 | 77 | 105 | 0.0 | 0.0 | 0.00 | 0.00 | 0.00 | 93 | 1013.4 |
| 20260905064236 | 77 | 104 | 0.0 | 0.0 | 0.00 | 0.00 | 0.00 | 93 | 1013.3 |
| 20260905063734 | 77 | 104 | 0.0 | 0.0 | 0.00 | 0.00 | 0.00 | 93 | 1013.5 |
| 20260905063230 | 77 | 104 | 0.0 | 0.0 | 0.00 | 0.00 | 0.00 | 93 | 1013.4 |
| 20260905062726 | 77 | 104 | 0.0 | 0.0 | 0.00 | 0.00 | 0.00 | 93 | 1013.3 |
| 20260905062225 | 77 | 104 | 0.0 | 0.0 | 0.00 | 0.00 | 0.00 | 93 | 1013.5 |
| 20260905061720 | 77 | 104 | 0.0 | 0.0 | 0.00 | 0.00 | 0.00 | 92 | 1013.1 |
| 20260905061215 | 77 | 104 | 0.0 | 0.0 | 0.00 | 0.00 | 0.00 | 92 | 1013.1 |
| 20260905060715 | 78 | 104 | 0.0 | 0.0 | 0.00 | 0.00 | 0.00 | 92 | 1013.1 |
| 20260905060212 | 78 | 104 | 0.0 | 0.0 | 0.00 | 0.00 | 0.00 | 91 | 1013.2 |
| 20260905055710 | 78 | 104 | 0.0 | 0.0 | 0.00 | 0.00 | 0.00 | 91 | 1012.9 |
| 20260905055205 | 78 | 104 | 0.0 | 0.0 | 0.00 | 0.00 | 0.00 | 91 | 1013.1 |
| 20260905054701 | 78 | 104 | 0.0 | 0.0 | 0.00 | 0.00 | 0.00 | 91 | 1013.2 |
| 20260905054157 | 78 | 104 | 0.0 | 0.0 | 0.00 | 0.00 | 0.00 | 91 | 1013.0 |
| 20260905053656 | 78 | 104 | 0.0 | 0.0 | 0.00 | 0.00 | 0.00 | 91 | 1013.1 |
| 20260905053151 | 78 | 104 | 0.0 | 0.0 | 0.00 | 0.00 | 0.00 | 91 | 1012.9 |
| 20260905052645 | 78 | 104 | 0.0 | 0.0 | 0.00 | 0.00 | 0.00 | 91 | 1012.6 |
| 20260905052140 | 78 | 104 | 0.0 | 0.0 | 0.00 | 0.00 | 0.00 | 90 | 1012.9 |
| 20260905051635 | 78 | 104 | 0.0 | 0.0 | 0.00 | 0.00 | 0.00 | 90 | 1013.0 |
| 20260905051132 | 78 | 104 | 0.0 | 0.0 | 0.00 | 0.00 | 0.00 | 89 | 1012.9 |
| 20260905050628 | 78 | 104 | 0.0 | 0.0 | 0.00 | 0.00 | 0.00 | 89 | 1013.0 |
| 20260905050125 | 78 | 104 | 0.0 | 0.0 | 0.00 | 0.00 | 0.00 | 89 | 1012.8 |
| 20260905045624 | 79 | 104 | 0.0 | 0.0 | 0.00 | 0.02 | 0.02 | 89 | 1012.9 |
| 20260905045120 | 79 | 104 | 0.0 | 0.0 | 0.00 | 0.02 | 0.02 | 89 | 1012.6 |
| 20260905044619 | 79 | 107 | 0.0 | 0.0 | 0.00 | 0.02 | 0.02 | 88 | 1012.8 |
| 20260905044114 | 79 | 107 | 0.0 | 0.0 | 0.00 | 0.02 | 0.02 | 89 | 1012.9 |
| 20260905043613 | 79 | 107 | 0.0 | 0.0 | 0.00 | 0.02 | 0.02 | 88 | 1012.8 |
| 20260905043109 | 79 | 104 | 0.0 | 0.0 | 0.00 | 0.02 | 0.02 | 87 | 1012.8 |
| 20260905042607 | 79 | 104 | 0.0 | 0.0 | 0.00 | 0.02 | 0.02 | 88 | 1012.8 |
| 20260905042102 | 79 | 104 | 0.0 | 0.0 | 0.00 | 0.02 | 0.02 | 87 | 1012.8 |
| 20260905041558 | 79 | 103 | 0.0 | 0.0 | 0.00 | 0.02 | 0.02 | 87 | 1012.6 |
| 20260905041053 | 79 | 102 | 0.0 | 0.0 | 0.00 | 0.02 | 0.02 | 87 | 1012.9 |
| 20260905040553 | 80 | 105 | 0.0 | 0.0 | 0.00 | 0.02 | 0.02 | 86 | 1012.8 |
| 20260905040051 | 80 | 105 | 0.0 | 0.0 | 0.00 | 0.02 | 0.02 | 87 | 1012.8 |
| 20260905035547 | 80 | 105 | 0.0 | 0.0 | 0.00 | 0.02 | 0.02 | 86 | 1013.0 |
| 20260905035044 | 80 | 105 | 0.0 | 0.0 | 0.00 | 0.02 | 0.02 | 87 | 1013.1 |
| 20260905034539 | 80 | 105 | 0.0 | 0.0 | 0.00 | 0.02 | 0.02 | 87 | 1013.0 |
| 20260905034038 | 80 | 105 | 0.0 | 0.0 | 0.00 | 0.02 | 0.02 | 86 | 1013.1 |
| 20260905033533 | 80 | 110 | 0.0 | 0.0 | 0.00 | 0.02 | 0.02 | 86 | 1013.2 |
| 20260905033029 | 80 | 112 | 0.0 | 0.0 | 0.00 | 0.02 | 0.02 | 85 | 1013.1 |
| 20260905032524 | 81 | 112 | 0.0 | 0.0 | 0.00 | 0.02 | 0.02 | 86 | 1013.0 |
| 20260905032019 | 81 | 112 | 0.0 | 0.0 | 0.00 | 0.02 | 0.02 | 85 | 1013.1 |
| 20260905031515 | 81 | 112 | 0.0 | 0.0 | 0.00 | 0.02 | 0.02 | 84 | 1013.0 |
| 20260905031014 | 81 | 112 | 0.0 | 0.0 | 0.00 | 0.02 | 0.02 | 86 | 1013.2 |
| 20260905030510 | 81 | 112 | 0.0 | 0.0 | 0.00 | 0.02 | 0.02 | 84 | 1013.0 |
| 20260905030009 | 81 | 112 | 0.0 | 0.0 | 0.00 | 0.02 | 0.02 | 83 | 1013.0 |
| 20260905025504 | 81 | 112 | 0.0 | 0.0 | 0.00 | 0.02 | 0.02 | 83 | 1012.8 |
| 20260905025001 | 81 | 112 | 0.0 | 0.0 | 0.00 | 0.02 | 0.02 | 83 | 1013.0 |
| 20260905024455 | 81 | 112 | 0.0 | 0.0 | 0.00 | 0.02 | 0.02 | 83 | 1012.9 |
| 20260905023951 | 81 | 112 | 0.0 | 0.0 | 0.00 | 0.02 | 0.02 | 83 | 1012.8 |
| 20260905023445 | 81 | 112 | 0.0 | 0.0 | 0.00 | 0.02 | 0.02 | 82 | 1012.5 |
| 20260905022944 | 82 | 112 | 0.0 | 0.0 | 0.00 | 0.02 | 0.02 | 82 | 1012.8 |
| 20260905022440 | 82 | 112 | 0.0 | 0.0 | 0.00 | 0.02 | 0.02 | 82 | 1012.6 |
| 20260905021935 | 82 | 112 | 0.0 | 0.0 | 0.00 | 0.02 | 0.02 | 81 | 1012.4 |
| 20260905021435 | 82 | 112 | 0.0 | 0.0 | 0.00 | 0.02 | 0.02 | 79 | 1012.4 |
| 20260905020930 | 82 | 112 | 0.0 | 0.0 | 0.00 | 0.02 | 0.02 | 79 | 1012.5 |
| 20260905020429 | 82 | 112 | 0.0 | 0.0 | 0.00 | 0.02 | 0.02 | 78 | 1012.2 |
| 20260905015924 | 83 | 112 | 0.0 | 0.0 | 0.00 | 0.02 | 0.02 | 79 | 1012.1 |
| 20260905015422 | 83 | 112 | 0.0 | 0.0 | 0.00 | 0.02 | 0.02 | 78 | 1011.8 |
| 20260905014922 | 83 | 112 | 0.0 | 0.0 | 0.00 | 0.02 | 0.02 | 79 | 1011.9 |
| 20260905014418 | 84 | 112 | 0.0 | 0.0 | 0.00 | 0.02 | 0.02 | 77 | 1011.8 |
| 20260905013912 | 84 | 114 | 0.0 | 0.0 | 0.00 | 0.02 | 0.02 | 76 | 1012.0 |
| 20260905013409 | 84 | 115 | 0.0 | 0.0 | 0.00 | 0.02 | 0.02 | 75 | 1011.7 |
| 20260905012904 | 84 | 115 | 0.0 | 0.0 | 0.00 | 0.02 | 0.02 | 76 | 1011.6 |
| 20260905012359 | 84 | 120 | 0.0 | 0.0 | 0.00 | 0.02 | 0.02 | 75 | 1011.6 |
| 20260905011856 | 85 | 109 | 0.0 | 0.0 | 0.00 | 0.02 | 0.02 | 74 | 1011.5 |
| 20260905011351 | 85 | 109 | 0.0 | 0.0 | 0.00 | 0.02 | 0.02 | 74 | 1011.6 |
| 20260905010847 | 85 | 109 | 0.0 | 0.0 | 0.00 | 0.02 | 0.02 | 72 | 1011.6 |
| 20260905010341 | 85 | 109 | 0.0 | 0.0 | 0.00 | 0.02 | 0.02 | 72 | 1011.6 |
| 20260905005838 | 86 | 109 | 0.0 | 0.0 | 0.00 | 0.02 | 0.02 | 72 | 1011.5 |
| 20260905005333 | 86 | 109 | 0.0 | 0.0 | 0.00 | 0.02 | 0.02 | 71 | 1011.5 |
| 20260905004828 | 86 | 109 | 0.0 | 0.0 | 0.00 | 0.02 | 0.02 | 70 | 1011.4 |
| 20260905004323 | 87 | 109 | 0.0 | 0.0 | 0.00 | 0.02 | 0.02 | 71 | 1011.4 |
| 20260905003818 | 87 | 109 | 0.0 | 0.0 | 0.00 | 0.02 | 0.02 | 70 | 1011.6 |
| 20260905003314 | 87 | 109 | 0.0 | 0.0 | 0.00 | 0.02 | 0.02 | 70 | 1011.5 |
| 20260905002815 | 87 | 109 | 0.0 | 0.0 | 0.00 | 0.02 | 0.02 | 69 | 1011.5 |
| 20260905002309 | 88 | 109 | 0.0 | 0.0 | 0.00 | 0.02 | 0.02 | 68 | 1011.6 |
| 20260905001804 | 88 | 109 | 0.0 | 0.0 | 0.00 | 0.02 | 0.02 | 67 | 1011.5 |
| 20260905001304 | 89 | 109 | 0.0 | 0.0 | 0.00 | 0.02 | 0.02 | 67 | 1011.5 |
| 20260905000759 | 89 | 109 | 0.0 | 0.0 | 0.00 | 0.02 | 0.02 | 65 | 1011.5 |